createdAt,value
2018-08-28T00:00:04.065Z,4.37
2018-08-28T00:02:33.347Z,4.60
2018-08-28T00:05:03.273Z,4.17
2018-08-28T00:07:32.592Z,3.97
2018-08-28T00:10:01.891Z,4.17
2018-08-28T00:12:31.194Z,4.17
2018-08-28T00:15:00.552Z,4.17
2018-08-28T00:17:29.919Z,4.17
2018-08-28T00:19:59.251Z,4.53
2018-08-28T00:22:28.584Z,4.97
2018-08-28T00:24:57.907Z,4.80
2018-08-28T00:27:27.246Z,4.47
2018-08-28T00:29:56.549Z,4.30
2018-08-28T00:32:25.781Z,4.50
2018-08-28T00:34:55.040Z,4.43
2018-08-28T00:37:24.288Z,4.50
2018-08-28T00:39:53.614Z,5.07
2018-08-28T00:42:22.891Z,4.40
2018-08-28T00:44:52.165Z,4.80
2018-08-28T00:47:21.421Z,4.13
2018-08-28T00:49:51.084Z,4.70
2018-08-28T00:52:20.403Z,4.33
2018-08-28T00:54:49.703Z,3.83
2018-08-28T00:57:19.033Z,4.20
2018-08-28T00:59:48.265Z,5.30
2018-08-28T01:02:17.530Z,5.23
2018-08-28T01:04:46.818Z,4.90
2018-08-28T01:07:16.072Z,5.10
2018-08-28T01:09:45.323Z,4.97
2018-08-28T01:12:14.992Z,4.73
2018-08-28T01:14:44.306Z,4.50
2018-08-28T01:17:14.106Z,5.10
2018-08-28T01:19:43.429Z,5.30
2018-08-28T01:22:13.145Z,4.97
2018-08-28T01:24:43.120Z,4.40
2018-08-28T01:27:12.401Z,4.67
2018-08-28T01:29:41.663Z,5.20
2018-08-28T01:32:11.032Z,5.20
2018-08-28T01:34:40.274Z,4.53
2018-08-28T01:37:09.566Z,4.60
2018-08-28T01:39:39.956Z,4.63
2018-08-28T01:42:09.625Z,4.60
2018-08-28T01:44:38.974Z,4.73
2018-08-28T01:47:08.286Z,4.60
2018-08-28T01:49:37.525Z,4.83
2018-08-28T01:52:06.881Z,4.10
2018-08-28T01:54:36.144Z,4.10
2018-08-28T01:57:05.953Z,5.17
2018-08-28T01:59:35.241Z,4.40
2018-08-28T02:02:04.515Z,4.90
2018-08-28T02:04:33.787Z,4.80
2018-08-28T02:07:03.091Z,4.77
2018-08-28T02:09:32.350Z,4.70
2018-08-28T02:12:01.655Z,4.60
2018-08-28T02:14:30.924Z,4.17
2018-08-28T02:17:00.236Z,4.40
2018-08-28T02:19:29.523Z,4.87
2018-08-28T02:21:58.884Z,4.63
2018-08-28T02:24:28.118Z,4.83
2018-08-28T02:26:57.408Z,4.67
2018-08-28T02:29:26.682Z,4.70
2018-08-28T02:31:55.979Z,4.87
2018-08-28T02:34:25.276Z,4.67
2018-08-28T02:36:54.513Z,5.00
2018-08-28T02:39:23.802Z,5.33
2018-08-28T02:41:53.110Z,5.00
2018-08-28T02:44:22.404Z,4.73
2018-08-28T02:46:51.674Z,5.10
2018-08-28T02:49:21.041Z,4.77
2018-08-28T02:51:50.339Z,5.10
2018-08-28T02:54:20.320Z,4.97
2018-08-28T02:56:49.618Z,5.20
2018-08-28T02:59:19.491Z,5.63
2018-08-28T03:01:48.793Z,4.60
2018-08-28T03:04:18.466Z,5.10
2018-08-28T03:06:47.702Z,4.67
2018-08-28T03:09:16.968Z,5.53
2018-08-28T03:11:46.695Z,5.10
2018-08-28T03:14:16.008Z,5.03
2018-08-28T03:16:45.275Z,5.43
2018-08-28T03:19:14.569Z,4.73
2018-08-28T03:21:44.337Z,5.07
2018-08-28T03:24:14.181Z,4.77
2018-08-28T03:26:43.447Z,5.13
2018-08-28T03:29:12.813Z,4.97
2018-08-28T03:31:42.027Z,4.30
2018-08-28T03:34:11.286Z,5.43
2018-08-28T03:36:41.390Z,4.53
2018-08-28T03:39:11.111Z,4.90
2018-08-28T03:41:40.363Z,4.80
2018-08-28T03:44:09.669Z,5.40
2018-08-28T03:46:38.979Z,5.00
2018-08-28T03:49:08.317Z,4.67
2018-08-28T03:51:38.559Z,4.53
2018-08-28T03:54:09.099Z,4.80
2018-08-28T03:56:38.370Z,4.83
2018-08-28T03:59:08.194Z,5.10
2018-08-28T04:01:37.954Z,4.30
2018-08-28T04:04:07.254Z,4.70
2018-08-28T04:06:45.085Z,3.93
2018-08-28T04:09:22.160Z,5.07
2018-08-28T04:12:00.832Z,4.20
2018-08-28T04:14:38.490Z,4.70
2018-08-28T04:17:18.385Z,5.10
2018-08-28T04:19:57.238Z,4.80
2018-08-28T04:22:37.416Z,4.90
2018-08-28T04:25:16.858Z,4.40
2018-08-28T04:27:54.792Z,4.77
2018-08-28T04:30:25.509Z,5.23
2018-08-28T04:32:54.790Z,5.00
2018-08-28T04:35:24.067Z,4.43
2018-08-28T04:37:53.417Z,4.67
2018-08-28T04:40:22.678Z,4.63
2018-08-28T04:42:51.925Z,5.30
2018-08-28T04:45:21.264Z,5.20
2018-08-28T04:47:50.640Z,4.50
2018-08-28T04:50:20.574Z,4.77
2018-08-28T04:52:49.918Z,4.63
2018-08-28T04:55:19.948Z,4.53
2018-08-28T04:57:49.206Z,4.70
2018-08-28T05:00:19.147Z,5.17
2018-08-28T05:02:48.383Z,4.37
2018-08-28T05:05:17.729Z,5.20
2018-08-28T05:07:47.009Z,4.50
2018-08-28T05:10:16.257Z,4.80
2018-08-28T05:12:45.485Z,4.73
2018-08-28T05:15:14.777Z,5.33
2018-08-28T05:17:44.094Z,5.10
2018-08-28T05:20:13.364Z,4.30
2018-08-28T05:22:42.639Z,4.87
2018-08-28T05:25:11.946Z,4.83
2018-08-28T05:27:41.801Z,4.50
2018-08-28T05:30:11.512Z,4.13
2018-08-28T05:32:40.830Z,5.10
2018-08-28T05:35:10.110Z,4.67
2018-08-28T05:37:39.422Z,4.63
2018-08-28T05:40:08.722Z,4.50
2018-08-28T05:42:38.433Z,5.40
2018-08-28T05:45:08.459Z,5.90
2018-08-28T05:47:37.851Z,5.90
2018-08-28T05:50:07.218Z,5.53
2018-08-28T05:52:36.546Z,5.37
2018-08-28T05:55:05.850Z,6.37
2018-08-28T05:57:35.153Z,6.20
2018-08-28T06:00:04.971Z,5.43
2018-08-28T06:02:34.202Z,5.60
2018-08-28T06:05:03.498Z,6.43
2018-08-28T06:07:32.757Z,6.67
2018-08-28T06:10:02.066Z,6.20
2018-08-28T06:12:31.334Z,6.40
2018-08-28T06:15:01.049Z,6.60
2018-08-28T06:17:30.808Z,5.43
2018-08-28T06:20:00.175Z,6.37
2018-08-28T06:22:29.489Z,6.10
2018-08-28T06:24:58.758Z,6.83
2018-08-28T06:27:28.070Z,6.23
2018-08-28T06:29:57.335Z,6.33
2018-08-28T06:32:26.853Z,6.03
2018-08-28T06:34:56.434Z,6.47
2018-08-28T06:37:26.915Z,5.60
2018-08-28T06:39:56.183Z,5.33
2018-08-28T06:42:26.244Z,5.27
2018-08-28T06:44:55.514Z,6.07
2018-08-28T06:47:25.455Z,5.47
2018-08-28T06:49:54.736Z,6.00
2018-08-28T06:52:24.734Z,5.67
2018-08-28T06:54:54.054Z,6.30
2018-08-28T06:57:23.462Z,6.60
2018-08-28T06:59:52.804Z,5.67
2018-08-28T07:02:22.141Z,6.30
2018-08-28T07:04:51.474Z,5.60
2018-08-28T07:07:20.872Z,5.97
2018-08-28T07:09:50.164Z,6.17
2018-08-28T07:12:19.410Z,5.83
2018-08-28T07:14:48.682Z,6.53
2018-08-28T07:17:17.978Z,6.27
2018-08-28T07:19:47.282Z,5.40
2018-08-28T07:22:16.617Z,5.53
2018-08-28T07:24:45.898Z,6.13
2018-08-28T07:27:15.200Z,6.43
2018-08-28T07:29:44.460Z,5.80
2018-08-28T07:32:13.741Z,6.07
2018-08-28T07:34:43.017Z,6.77
2018-08-28T07:37:12.550Z,5.67
2018-08-28T07:39:42.235Z,5.30
2018-08-28T07:42:12.509Z,4.67
2018-08-28T07:44:41.790Z,5.00
2018-08-28T07:47:11.069Z,5.03
2018-08-28T07:49:40.516Z,5.37
2018-08-28T07:52:09.863Z,5.03
2018-08-28T07:54:39.579Z,5.20
2018-08-28T07:57:10.204Z,5.10
2018-08-28T07:59:39.571Z,5.20
2018-08-28T08:02:08.991Z,4.77
2018-08-28T08:04:38.251Z,4.60
2018-08-28T08:07:07.873Z,5.00
2018-08-28T08:09:37.324Z,4.40
2018-08-28T08:12:07.030Z,4.57
2018-08-28T08:14:36.326Z,4.67
2018-08-28T08:17:05.635Z,4.33
2018-08-28T08:19:34.968Z,4.50
2018-08-28T08:22:04.285Z,4.27
2018-08-28T08:24:33.506Z,4.50
2018-08-28T08:27:02.806Z,4.57
2018-08-28T08:29:32.559Z,4.70
2018-08-28T08:32:02.567Z,4.37
2018-08-28T08:34:32.474Z,4.23
2018-08-28T08:37:01.816Z,3.97
2018-08-28T08:39:31.877Z,3.40
2018-08-28T08:42:01.212Z,4.67
2018-08-28T08:44:31.177Z,3.93
2018-08-28T08:47:00.402Z,4.23
2018-08-28T08:49:29.926Z,4.50
2018-08-28T08:51:59.281Z,4.33
2018-08-28T08:54:28.586Z,3.50
2018-08-28T08:56:59.230Z,3.57
2018-08-28T08:59:28.449Z,3.80
2018-08-28T09:01:57.702Z,3.60
2018-08-28T09:04:27.023Z,5.40
2018-08-28T09:06:56.278Z,3.93
2018-08-28T09:09:25.563Z,3.87
2018-08-28T09:11:54.868Z,4.00
2018-08-28T09:14:24.215Z,3.43
2018-08-28T09:16:53.529Z,3.83
2018-08-28T09:19:22.970Z,3.27
2018-08-28T09:21:52.677Z,3.30
2018-08-28T09:24:22.017Z,3.43
2018-08-28T09:26:51.291Z,3.63
2018-08-28T09:29:20.555Z,3.60
2018-08-28T09:31:49.828Z,3.73
2018-08-28T09:34:19.122Z,3.70
2018-08-28T09:36:48.403Z,3.30
2018-08-28T09:39:17.649Z,3.93
2018-08-28T09:41:46.993Z,3.50
2018-08-28T09:44:16.246Z,3.53
2018-08-28T09:46:45.561Z,3.30
2018-08-28T09:49:14.797Z,3.93
2018-08-28T09:51:44.085Z,3.43
2018-08-28T09:54:13.996Z,3.90
2018-08-28T09:56:43.319Z,4.10
2018-08-28T09:59:12.630Z,3.57
2018-08-28T10:01:45.175Z,3.40
2018-08-28T10:04:15.394Z,4.33
2018-08-28T10:06:44.721Z,3.70
2018-08-28T10:09:15.732Z,3.33
2018-08-28T10:11:45.267Z,3.53
2018-08-28T10:14:14.607Z,3.47
2018-08-28T10:16:43.907Z,3.50
2018-08-28T10:19:13.217Z,3.17
2018-08-28T10:21:42.721Z,3.43
2018-08-28T10:24:12.631Z,3.33
2018-08-28T10:26:41.987Z,3.43
2018-08-28T10:29:11.258Z,3.27
2018-08-28T10:31:40.578Z,3.27
2018-08-28T10:34:09.860Z,3.63
2018-08-28T10:36:40.724Z,3.37
2018-08-28T10:39:11.011Z,3.40
2018-08-28T10:41:40.523Z,3.50
2018-08-28T10:44:09.793Z,3.70
2018-08-28T10:46:40.024Z,3.47
2018-08-28T10:49:09.287Z,3.40
2018-08-28T10:51:40.094Z,3.67
2018-08-28T10:54:10.305Z,3.70
2018-08-28T10:56:40.213Z,3.53
2018-08-28T10:59:09.515Z,3.87
2018-08-28T11:01:39.440Z,3.60
2018-08-28T11:04:08.733Z,3.97
2018-08-28T11:06:38.272Z,3.50
2018-08-28T11:09:07.992Z,4.03
2018-08-28T11:11:37.645Z,3.77
2018-08-28T11:14:07.581Z,3.43
2018-08-28T11:16:37.020Z,3.57
2018-08-28T11:19:06.283Z,3.27
2018-08-28T11:21:35.537Z,3.57
2018-08-28T11:24:04.803Z,4.10
2018-08-28T11:26:34.099Z,3.47
2018-08-28T11:29:03.442Z,4.30
2018-08-28T11:31:33.107Z,3.57
2018-08-28T11:34:02.469Z,2.67
2018-08-28T11:36:31.765Z,3.20
2018-08-28T11:39:01.105Z,4.23
2018-08-28T11:41:31.060Z,3.43
2018-08-28T11:44:00.313Z,3.30
2018-08-28T11:46:29.639Z,3.60
2018-08-28T11:48:59.142Z,3.43
2018-08-28T11:51:28.634Z,4.40
2018-08-28T11:53:57.917Z,3.90
2018-08-28T11:56:27.201Z,3.77
2018-08-28T11:58:56.478Z,4.63
2018-08-28T12:01:25.821Z,4.80
2018-08-28T12:03:55.151Z,4.60
2018-08-28T12:06:24.448Z,4.03
2018-08-28T12:08:53.706Z,4.00
2018-08-28T12:11:22.997Z,4.30
2018-08-28T12:13:52.300Z,3.93
2018-08-28T12:16:21.648Z,4.20
2018-08-28T12:18:51.065Z,3.90
2018-08-28T12:21:20.300Z,4.20
2018-08-28T12:23:49.595Z,3.97
2018-08-28T12:26:19.007Z,4.50
2018-08-28T12:28:48.291Z,4.23
2018-08-28T12:31:17.605Z,4.73
2018-08-28T12:33:46.965Z,4.60
2018-08-28T12:36:16.315Z,4.73
2018-08-28T12:38:45.759Z,4.40
2018-08-28T12:41:15.286Z,4.80
2018-08-28T12:43:45.258Z,4.80
2018-08-28T12:46:14.725Z,4.20
2018-08-28T12:48:45.109Z,4.70
2018-08-28T12:51:14.957Z,4.80
2018-08-28T12:53:44.790Z,4.37
2018-08-28T12:56:14.190Z,4.60
2018-08-28T12:58:44.139Z,4.60
2018-08-28T13:01:13.479Z,4.80
2018-08-28T13:03:44.526Z,4.90
2018-08-28T13:06:14.115Z,4.70
2018-08-28T13:08:43.726Z,4.97
2018-08-28T13:11:13.112Z,4.80
2018-08-28T13:13:42.452Z,5.17
2018-08-28T13:16:11.782Z,4.93
2018-08-28T13:18:42.474Z,6.33
2018-08-28T13:21:12.221Z,4.87
2018-08-28T13:23:41.506Z,5.60
2018-08-28T13:26:11.056Z,4.87
2018-08-28T13:28:40.487Z,5.10
2018-08-28T13:31:09.786Z,5.43
2018-08-28T13:33:39.907Z,5.90
2018-08-28T13:36:09.890Z,5.07
2018-08-28T13:38:39.612Z,5.73
2018-08-28T13:41:08.940Z,5.57
2018-08-28T13:43:38.529Z,6.23
2018-08-28T13:46:07.830Z,5.83
2018-08-28T13:48:37.296Z,5.70
2018-08-28T13:51:06.759Z,5.50
2018-08-28T13:53:36.128Z,5.63
2018-08-28T13:56:05.444Z,5.30
2018-08-28T13:58:34.786Z,5.67
2018-08-28T14:01:04.166Z,5.07
2018-08-28T14:03:33.620Z,5.33
2018-08-28T14:06:02.866Z,5.57
2018-08-28T14:08:32.149Z,5.97
2018-08-28T14:11:01.459Z,5.90
2018-08-28T14:13:30.801Z,5.80
2018-08-28T14:16:00.076Z,6.20
2018-08-28T14:18:29.332Z,5.33
2018-08-28T14:20:58.647Z,5.93
2018-08-28T14:23:27.999Z,5.17
2018-08-28T14:25:57.312Z,5.80
2018-08-28T14:28:26.809Z,5.90
2018-08-28T14:30:56.223Z,5.70
2018-08-28T14:33:25.552Z,5.80
2018-08-28T14:35:54.845Z,6.33
2018-08-28T14:38:25.411Z,5.97
2018-08-28T14:40:54.879Z,5.93
2018-08-28T14:43:24.266Z,5.83
2018-08-28T14:45:53.566Z,5.23
2018-08-28T14:48:22.843Z,5.37
2018-08-28T14:50:52.258Z,5.67
2018-08-28T14:53:21.679Z,5.50
2018-08-28T14:55:51.912Z,5.63
2018-08-28T14:58:21.294Z,5.73
2018-08-28T15:00:51.443Z,5.50
2018-08-28T15:03:20.736Z,6.10
2018-08-28T15:05:50.570Z,5.97
2018-08-28T15:08:20.200Z,5.70
2018-08-28T15:10:50.095Z,5.60
2018-08-28T15:13:19.786Z,6.03
2018-08-28T15:15:49.544Z,5.63
2018-08-28T15:18:19.243Z,5.87
2018-08-28T15:20:48.910Z,5.43
2018-08-28T15:23:18.482Z,5.50
2018-08-28T15:25:48.175Z,5.77
2018-08-28T15:28:17.794Z,5.80
2018-08-28T15:30:48.294Z,5.63
2018-08-28T15:33:17.970Z,5.93
2018-08-28T15:35:47.583Z,5.70
2018-08-28T15:38:17.221Z,5.80
2018-08-28T15:40:46.800Z,5.80
2018-08-28T15:43:16.016Z,5.30
2018-08-28T15:45:45.324Z,5.10
2018-08-28T15:48:15.026Z,4.90
2018-08-28T15:50:44.264Z,5.07
2018-08-28T15:53:13.558Z,5.17
2018-08-28T15:55:42.849Z,5.90
2018-08-28T15:58:12.106Z,5.90
2018-08-28T16:00:41.823Z,5.37
2018-08-28T16:03:12.246Z,5.40
2018-08-28T16:05:41.665Z,5.43
2018-08-28T16:08:10.926Z,5.10
2018-08-28T16:10:40.268Z,5.80
2018-08-28T16:13:09.586Z,5.40
2018-08-28T16:15:40.124Z,5.00
2018-08-28T16:18:09.959Z,5.17
2018-08-28T16:20:39.219Z,6.13
2018-08-28T16:23:12.663Z,5.27
2018-08-28T16:25:41.980Z,5.27
2018-08-28T16:28:11.328Z,5.17
2018-08-28T16:30:41.613Z,5.80
2018-08-28T16:33:11.909Z,5.30
2018-08-28T16:35:41.203Z,5.40
2018-08-28T16:38:10.560Z,5.07
2018-08-28T16:40:39.892Z,5.27
2018-08-28T16:43:09.206Z,5.30
2018-08-28T16:45:39.121Z,4.70
2018-08-28T16:48:08.893Z,5.37
2018-08-28T16:50:38.322Z,5.00
2018-08-28T16:53:08.167Z,5.10
2018-08-28T16:55:37.454Z,5.03
2018-08-28T16:58:06.734Z,4.67
2018-08-28T17:00:36.057Z,4.73
2018-08-28T17:03:05.334Z,5.40
2018-08-28T17:05:34.704Z,5.80
2018-08-28T17:08:04.290Z,5.23
2018-08-28T17:10:33.597Z,5.30
2018-08-28T17:13:02.946Z,4.80
2018-08-28T17:15:32.234Z,4.83
2018-08-28T17:18:01.550Z,5.13
2018-08-28T17:20:30.804Z,4.53
2018-08-28T17:23:00.248Z,5.17
2018-08-28T17:25:29.532Z,5.47
2018-08-28T17:28:00.074Z,5.23
2018-08-28T17:30:29.432Z,5.27
2018-08-28T17:32:59.930Z,4.30
2018-08-28T17:35:29.580Z,5.07
2018-08-28T17:37:59.464Z,4.90
2018-08-28T17:40:29.205Z,5.07
2018-08-28T17:42:59.696Z,5.57
2018-08-28T17:45:29.523Z,5.13
2018-08-28T17:47:59.177Z,4.90
2018-08-28T17:50:28.961Z,5.30
2018-08-28T17:52:59.145Z,4.97
2018-08-28T17:55:29.708Z,5.17
2018-08-28T17:57:59.502Z,5.30
2018-08-28T18:00:29.432Z,5.00
2018-08-28T18:02:59.036Z,4.90
2018-08-28T18:05:28.996Z,5.60
2018-08-28T18:07:58.591Z,4.90
2018-08-28T18:10:27.872Z,4.97
2018-08-28T18:12:57.170Z,5.30
2018-08-28T18:15:26.490Z,4.83
2018-08-28T18:17:55.849Z,4.73
2018-08-28T18:20:25.140Z,5.03
2018-08-28T18:22:54.476Z,5.50
2018-08-28T18:25:23.815Z,5.30
2018-08-28T18:27:53.961Z,5.30
2018-08-28T18:30:24.100Z,5.10
2018-08-28T18:32:54.027Z,5.10
2018-08-28T18:35:23.937Z,4.90
2018-08-28T18:37:53.368Z,5.07
2018-08-28T18:40:23.304Z,4.93
2018-08-28T18:42:52.839Z,4.87
2018-08-28T18:45:23.125Z,5.00
2018-08-28T18:47:52.611Z,5.23
2018-08-28T18:50:23.064Z,4.93
2018-08-28T18:52:53.501Z,5.30
2018-08-28T18:55:23.116Z,5.90
2018-08-28T18:57:52.959Z,5.27
2018-08-28T19:00:22.971Z,5.23
2018-08-28T19:02:52.969Z,4.97
2018-08-28T19:05:23.214Z,4.93
2018-08-28T19:07:53.139Z,4.77
2018-08-28T19:10:23.244Z,5.80
2018-08-28T19:12:52.971Z,5.20
2018-08-28T19:15:22.745Z,5.20
2018-08-28T19:17:52.721Z,5.47
2018-08-28T19:20:25.042Z,5.00
2018-08-28T19:22:54.364Z,4.83
2018-08-28T19:28:23.565Z,4.70
2018-08-28T19:30:52.861Z,5.00
2018-08-28T19:33:22.145Z,5.87
2018-08-28T19:35:51.630Z,5.10
2018-08-28T19:38:21.796Z,5.17
2018-08-28T19:40:51.156Z,5.40
2018-08-28T19:43:20.438Z,4.73
2018-08-28T19:45:50.823Z,5.10
2018-08-28T19:48:20.135Z,5.37
2018-08-28T19:50:49.492Z,6.13
2018-08-28T19:53:23.145Z,5.53
2018-08-28T19:55:59.194Z,5.27
2018-08-28T19:58:30.839Z,5.83
2018-08-28T20:01:02.942Z,5.27
2018-08-28T20:03:32.557Z,4.87
2018-08-28T20:06:02.426Z,5.60
2018-08-28T20:08:32.269Z,5.67
2018-08-28T20:11:02.051Z,5.80
2018-08-28T20:13:31.768Z,5.30
2018-08-28T20:16:01.726Z,5.13
2018-08-28T20:18:31.365Z,5.80
2018-08-28T20:21:00.680Z,5.43
2018-08-28T20:23:30.301Z,5.07
2018-08-28T20:25:59.956Z,5.47
2018-08-28T20:28:29.440Z,5.70
2018-08-28T20:30:59.274Z,5.97
2018-08-28T20:33:28.698Z,5.47
2018-08-28T20:35:58.085Z,5.30
2018-08-28T20:38:27.458Z,5.23
2018-08-28T20:40:56.787Z,5.77
2018-08-28T20:43:32.944Z,5.87
2018-08-28T20:46:02.860Z,5.17
2018-08-28T20:48:32.185Z,5.07
2018-08-28T20:51:01.455Z,4.90
2018-08-28T20:53:31.114Z,5.53
2018-08-28T20:56:00.461Z,5.37
2018-08-28T20:58:30.241Z,5.47
2018-08-28T21:00:59.935Z,5.03
2018-08-28T21:03:29.227Z,5.70
2018-08-28T21:05:58.503Z,5.37
2018-08-28T21:08:27.809Z,5.33
2018-08-28T21:10:57.110Z,5.47
2018-08-28T21:13:26.443Z,5.60
2018-08-28T21:15:55.798Z,5.07
2018-08-28T21:18:25.090Z,5.80
2018-08-28T21:20:54.439Z,4.90
2018-08-28T21:23:23.759Z,5.43
2018-08-28T21:25:53.019Z,5.00
2018-08-28T21:28:22.296Z,5.83
2018-08-28T21:30:51.827Z,5.83
2018-08-28T21:33:21.369Z,5.37
2018-08-28T21:35:50.773Z,5.20
2018-08-28T21:38:19.988Z,5.57
2018-08-28T21:40:49.287Z,5.03
2018-08-28T21:43:19.150Z,5.83
2018-08-28T21:45:48.853Z,6.67
2018-08-28T21:48:19.351Z,5.80
2018-08-28T21:50:48.655Z,5.67
2018-08-28T21:53:18.547Z,5.37
2018-08-28T21:55:48.006Z,5.80
2018-08-28T21:58:17.999Z,6.00
2018-08-28T22:00:51.485Z,5.67
2018-08-28T22:03:21.395Z,5.83
2018-08-28T22:05:50.656Z,5.83
2018-08-28T22:08:22.855Z,6.13
2018-08-28T22:10:52.146Z,5.73
2018-08-28T22:13:21.528Z,6.30
2018-08-28T22:15:50.846Z,5.60
2018-08-28T22:18:20.914Z,5.67
2018-08-28T22:20:55.077Z,6.30
2018-08-28T22:23:25.340Z,6.90
2018-08-28T22:25:54.655Z,5.70
2018-08-28T22:28:23.947Z,5.70
2018-08-28T22:30:53.229Z,6.00
2018-08-28T22:33:22.709Z,5.80
2018-08-28T22:35:52.002Z,5.93
2018-08-28T22:38:21.386Z,6.00
2018-08-28T22:40:50.619Z,5.63
2018-08-28T22:43:22.201Z,5.93
2018-08-28T22:45:52.128Z,6.83
2018-08-28T22:48:21.953Z,5.53
2018-08-28T22:50:51.224Z,5.40
2018-08-28T22:53:21.185Z,6.07
2018-08-28T22:55:50.529Z,5.83
2018-08-28T22:58:20.373Z,5.50
2018-08-28T23:00:49.759Z,5.40
2018-08-28T23:03:19.594Z,4.97
2018-08-28T23:05:48.858Z,5.70
2018-08-28T23:08:18.356Z,5.20
2018-08-28T23:10:47.678Z,5.77
2018-08-28T23:13:16.978Z,5.40
2018-08-28T23:15:46.312Z,5.77
2018-08-28T23:18:16.036Z,4.87
2018-08-28T23:20:45.426Z,5.30
2018-08-28T23:23:14.718Z,5.90
2018-08-28T23:25:44.042Z,5.83
2018-08-28T23:28:13.354Z,5.93
2018-08-28T23:30:42.961Z,5.17
2018-08-28T23:33:13.285Z,5.20
2018-08-28T23:35:42.563Z,5.03
2018-08-28T23:38:11.836Z,5.10
2018-08-28T23:40:41.215Z,5.47
2018-08-28T23:43:10.578Z,5.10
2018-08-28T23:45:41.581Z,5.00
2018-08-28T23:48:11.492Z,5.63
2018-08-28T23:50:40.827Z,5.30
2018-08-28T23:53:10.338Z,5.03
2018-08-28T23:55:39.623Z,5.00
2018-08-28T23:58:08.883Z,4.87
